sensor_id;sensor_type;location;lat;lon;timestamp;pressure;altitude;pressure_sealevel;temperature;humidity
7774;BME280;3931;42.260;23.116;2023-01-31T00:00:42;95088.47;;;5.23;75.16
7774;BME280;3931;42.260;23.116;2023-01-31T00:03:08;95096.00;;;5.45;72.84
7774;BME280;3931;42.260;23.116;2023-01-31T00:05:34;95067.94;;;5.34;73.79
7774;BME280;3931;42.260;23.116;2023-01-31T00:08:00;95055.53;;;5.76;72.13
7774;BME280;3931;42.260;23.116;2023-01-31T00:10:26;95039.25;;;6.15;68.77
7774;BME280;3931;42.260;23.116;2023-01-31T00:12:53;95046.56;;;5.75;71.71
7774;BME280;3931;42.260;23.116;2023-01-31T00:15:19;95037.75;;;5.87;71.52
7774;BME280;3931;42.260;23.116;2023-01-31T00:17:45;95053.19;;;5.78;70.64
7774;BME280;3931;42.260;23.116;2023-01-31T00:20:11;95052.41;;;6.47;68.17
7774;BME280;3931;42.260;23.116;2023-01-31T00:22:38;95065.97;;;6.77;65.66
7774;BME280;3931;42.260;23.116;2023-01-31T00:25:04;95074.06;;;7.04;64.09
7774;BME280;3931;42.260;23.116;2023-01-31T00:27:31;95059.41;;;6.91;63.43
7774;BME280;3931;42.260;23.116;2023-01-31T00:29:57;95054.47;;;7.02;63.23
7774;BME280;3931;42.260;23.116;2023-01-31T00:32:23;95046.72;;;7.32;60.99
7774;BME280;3931;42.260;23.116;2023-01-31T00:34:51;95045.56;;;6.12;67.60
7774;BME280;3931;42.260;23.116;2023-01-31T00:37:18;95031.91;;;6.71;65.30
7774;BME280;3931;42.260;23.116;2023-01-31T00:39:44;95038.09;;;5.89;68.73
7774;BME280;3931;42.260;23.116;2023-01-31T00:42:10;95057.72;;;6.77;66.96
7774;BME280;3931;42.260;23.116;2023-01-31T00:44:36;95044.09;;;6.90;66.96
7774;BME280;3931;42.260;23.116;2023-01-31T00:47:02;95041.44;;;6.67;64.92
7774;BME280;3931;42.260;23.116;2023-01-31T00:49:28;95032.25;;;8.73;58.76
7774;BME280;3931;42.260;23.116;2023-01-31T00:51:55;95047.28;;;9.14;56.80
7774;BME280;3931;42.260;23.116;2023-01-31T00:54:21;95050.69;;;8.76;55.81
7774;BME280;3931;42.260;23.116;2023-01-31T00:56:47;95049.25;;;7.07;60.97
7774;BME280;3931;42.260;23.116;2023-01-31T00:59:13;95053.47;;;7.12;61.30
7774;BME280;3931;42.260;23.116;2023-01-31T01:01:39;95039.16;;;7.36;60.33
7774;BME280;3931;42.260;23.116;2023-01-31T01:04:05;95038.97;;;9.01;56.93
7774;BME280;3931;42.260;23.116;2023-01-31T01:06:32;95033.81;;;9.16;55.36
7774;BME280;3931;42.260;23.116;2023-01-31T01:08:59;95038.00;;;9.08;55.05
7774;BME280;3931;42.260;23.116;2023-01-31T01:11:26;95034.63;;;9.41;54.73
7774;BME280;3931;42.260;23.116;2023-01-31T01:13:53;95039.22;;;8.17;55.23
7774;BME280;3931;42.260;23.116;2023-01-31T01:16:21;95031.22;;;7.58;58.91
7774;BME280;3931;42.260;23.116;2023-01-31T01:18:48;95034.63;;;7.10;60.17
7774;BME280;3931;42.260;23.116;2023-01-31T01:21:17;95029.38;;;7.00;63.14
7774;BME280;3931;42.260;23.116;2023-01-31T01:23:44;95036.13;;;7.15;61.92
7774;BME280;3931;42.260;23.116;2023-01-31T01:26:16;95042.56;;;6.89;61.44
7774;BME280;3931;42.260;23.116;2023-01-31T01:28:43;95038.75;;;6.83;64.05
7774;BME280;3931;42.260;23.116;2023-01-31T01:31:10;95042.50;;;7.12;63.16
7774;BME280;3931;42.260;23.116;2023-01-31T01:33:36;95030.75;;;7.08;62.70
7774;BME280;3931;42.260;23.116;2023-01-31T01:36:04;95038.81;;;6.79;62.68
7774;BME280;3931;42.260;23.116;2023-01-31T01:38:33;95039.59;;;6.80;62.42
7774;BME280;3931;42.260;23.116;2023-01-31T01:40:59;95039.31;;;7.13;61.21
7774;BME280;3931;42.260;23.116;2023-01-31T01:43:39;95048.34;;;7.30;60.80
7774;BME280;3931;42.260;23.116;2023-01-31T01:46:06;95044.91;;;7.62;59.24
7774;BME280;3931;42.260;23.116;2023-01-31T01:48:33;95050.00;;;7.63;58.23
7774;BME280;3931;42.260;23.116;2023-01-31T01:51:00;95057.19;;;7.21;57.98
7774;BME280;3931;42.260;23.116;2023-01-31T01:53:29;95072.78;;;7.28;57.99
7774;BME280;3931;42.260;23.116;2023-01-31T01:55:59;95067.47;;;7.37;57.65
7774;BME280;3931;42.260;23.116;2023-01-31T01:58:30;95060.56;;;7.65;56.91
7774;BME280;3931;42.260;23.116;2023-01-31T02:00:59;95070.94;;;7.57;57.52
7774;BME280;3931;42.260;23.116;2023-01-31T02:03:25;95068.16;;;7.41;57.63
7774;BME280;3931;42.260;23.116;2023-01-31T02:05:53;95085.34;;;7.65;56.44
7774;BME280;3931;42.260;23.116;2023-01-31T02:08:22;95077.31;;;6.79;57.87
7774;BME280;3931;42.260;23.116;2023-01-31T02:10:53;95082.25;;;6.88;58.93
7774;BME280;3931;42.260;23.116;2023-01-31T02:13:21;95076.03;;;6.84;59.08
7774;BME280;3931;42.260;23.116;2023-01-31T02:15:47;95076.00;;;6.87;59.65
7774;BME280;3931;42.260;23.116;2023-01-31T02:18:15;95076.75;;;7.07;58.08
7774;BME280;3931;42.260;23.116;2023-01-31T02:24:11;95085.97;;;6.97;58.37
7774;BME280;3931;42.260;23.116;2023-01-31T02:27:27;95095.47;;;6.53;60.31
7774;BME280;3931;42.260;23.116;2023-01-31T02:30:30;95099.25;;;7.22;59.25
7774;BME280;3931;42.260;23.116;2023-01-31T02:33:04;95095.84;;;6.75;59.89
7774;BME280;3931;42.260;23.116;2023-01-31T02:35:43;95093.28;;;6.45;61.49
7774;BME280;3931;42.260;23.116;2023-01-31T02:38:23;95090.72;;;6.54;62.36
7774;BME280;3931;42.260;23.116;2023-01-31T02:41:00;95097.78;;;6.55;62.07
7774;BME280;3931;42.260;23.116;2023-01-31T02:43:34;95096.53;;;6.36;63.43
7774;BME280;3931;42.260;23.116;2023-01-31T02:46:29;95121.16;;;6.20;64.76
7774;BME280;3931;42.260;23.116;2023-01-31T02:49:02;95118.69;;;6.26;65.17
7774;BME280;3931;42.260;23.116;2023-01-31T02:51:32;95129.66;;;6.29;65.79
7774;BME280;3931;42.260;23.116;2023-01-31T02:54:06;95119.81;;;6.05;66.23
7774;BME280;3931;42.260;23.116;2023-01-31T02:56:35;95142.59;;;6.29;65.41
7774;BME280;3931;42.260;23.116;2023-01-31T02:59:04;95134.56;;;6.84;62.71
7774;BME280;3931;42.260;23.116;2023-01-31T03:01:35;95135.63;;;7.29;61.01
7774;BME280;3931;42.260;23.116;2023-01-31T03:04:05;95131.38;;;7.45;60.37
7774;BME280;3931;42.260;23.116;2023-01-31T03:06:58;95126.38;;;7.75;59.61
7774;BME280;3931;42.260;23.116;2023-01-31T03:09:34;95144.34;;;7.64;59.01
7774;BME280;3931;42.260;23.116;2023-01-31T03:15:01;95138.84;;;7.64;58.35
7774;BME280;3931;42.260;23.116;2023-01-31T03:17:38;95137.78;;;7.93;56.85
7774;BME280;3931;42.260;23.116;2023-01-31T03:20:10;95134.38;;;8.05;56.15
7774;BME280;3931;42.260;23.116;2023-01-31T03:22:39;95146.94;;;7.71;55.40
7774;BME280;3931;42.260;23.116;2023-01-31T03:25:09;95138.09;;;7.44;56.66
7774;BME280;3931;42.260;23.116;2023-01-31T03:27:37;95144.66;;;7.30;57.59
7774;BME280;3931;42.260;23.116;2023-01-31T03:30:11;95144.84;;;7.39;58.30
7774;BME280;3931;42.260;23.116;2023-01-31T03:32:41;95148.53;;;7.32;59.49
7774;BME280;3931;42.260;23.116;2023-01-31T03:35:11;95155.31;;;7.08;61.08
7774;BME280;3931;42.260;23.116;2023-01-31T03:37:42;95171.94;;;7.01;61.38
7774;BME280;3931;42.260;23.116;2023-01-31T03:40:11;95165.88;;;7.10;60.95
7774;BME280;3931;42.260;23.116;2023-01-31T03:42:44;95177.47;;;7.60;60.66
7774;BME280;3931;42.260;23.116;2023-01-31T03:45:16;95176.19;;;7.25;59.99
7774;BME280;3931;42.260;23.116;2023-01-31T03:47:46;95177.47;;;7.41;59.65
7774;BME280;3931;42.260;23.116;2023-01-31T03:50:17;95177.41;;;9.41;56.05
7774;BME280;3931;42.260;23.116;2023-01-31T03:52:50;95191.00;;;7.51;56.50
7774;BME280;3931;42.260;23.116;2023-01-31T03:55:20;95192.75;;;7.22;59.26
7774;BME280;3931;42.260;23.116;2023-01-31T03:57:51;95191.78;;;7.52;57.86
7774;BME280;3931;42.260;23.116;2023-01-31T04:00:20;95193.03;;;7.08;57.87
7774;BME280;3931;42.260;23.116;2023-01-31T04:02:50;95187.59;;;7.04;59.38
7774;BME280;3931;42.260;23.116;2023-01-31T04:05:20;95200.09;;;6.39;62.86
7774;BME280;3931;42.260;23.116;2023-01-31T04:07:47;95205.75;;;6.55;65.04
7774;BME280;3931;42.260;23.116;2023-01-31T04:10:15;95213.72;;;6.93;63.04
7774;BME280;3931;42.260;23.116;2023-01-31T04:12:42;95211.19;;;6.32;65.19
7774;BME280;3931;42.260;23.116;2023-01-31T04:15:09;95223.13;;;6.22;65.56
7774;BME280;3931;42.260;23.116;2023-01-31T04:17:36;95232.50;;;5.98;67.66
7774;BME280;3931;42.260;23.116;2023-01-31T04:20:04;95235.50;;;6.07;69.62
7774;BME280;3931;42.260;23.116;2023-01-31T04:22:31;95227.41;;;6.50;68.34
7774;BME280;3931;42.260;23.116;2023-01-31T04:24:57;95227.91;;;6.68;66.24
7774;BME280;3931;42.260;23.116;2023-01-31T04:27:23;95225.28;;;6.84;65.10
7774;BME280;3931;42.260;23.116;2023-01-31T04:29:49;95230.63;;;7.14;62.38
7774;BME280;3931;42.260;23.116;2023-01-31T04:32:15;95232.94;;;7.59;61.05
7774;BME280;3931;42.260;23.116;2023-01-31T04:34:41;95237.94;;;7.64;59.28
7774;BME280;3931;42.260;23.116;2023-01-31T04:37:07;95245.13;;;6.95;59.67
7774;BME280;3931;42.260;23.116;2023-01-31T04:39:34;95252.00;;;6.84;62.67
7774;BME280;3931;42.260;23.116;2023-01-31T04:42:00;95245.94;;;7.15;61.83
7774;BME280;3931;42.260;23.116;2023-01-31T04:44:26;95247.44;;;7.20;60.99
7774;BME280;3931;42.260;23.116;2023-01-31T04:46:53;95259.28;;;7.36;59.17
7774;BME280;3931;42.260;23.116;2023-01-31T04:49:19;95249.25;;;7.07;59.86
7774;BME280;3931;42.260;23.116;2023-01-31T04:51:45;95247.09;;;7.38;58.75
7774;BME280;3931;42.260;23.116;2023-01-31T04:54:11;95252.03;;;7.26;57.93
7774;BME280;3931;42.260;23.116;2023-01-31T04:56:38;95245.34;;;7.47;57.79
7774;BME280;3931;42.260;23.116;2023-01-31T04:59:04;95249.19;;;7.30;58.81
7774;BME280;3931;42.260;23.116;2023-01-31T05:01:30;95259.03;;;7.31;57.95
7774;BME280;3931;42.260;23.116;2023-01-31T05:03:56;95260.78;;;7.41;57.36
7774;BME280;3931;42.260;23.116;2023-01-31T05:06:22;95267.75;;;7.26;58.52
7774;BME280;3931;42.260;23.116;2023-01-31T05:08:48;95254.78;;;7.46;57.74
7774;BME280;3931;42.260;23.116;2023-01-31T05:11:16;95269.22;;;7.73;57.13
7774;BME280;3931;42.260;23.116;2023-01-31T05:13:43;95280.69;;;7.49;58.45
7774;BME280;3931;42.260;23.116;2023-01-31T05:16:10;95289.06;;;7.84;57.64
7774;BME280;3931;42.260;23.116;2023-01-31T05:18:37;95279.66;;;8.21;56.26
7774;BME280;3931;42.260;23.116;2023-01-31T05:21:03;95284.53;;;7.94;56.80
7774;BME280;3931;42.260;23.116;2023-01-31T05:23:30;95284.69;;;7.24;57.55
7774;BME280;3931;42.260;23.116;2023-01-31T05:25:56;95299.38;;;7.14;60.25
7774;BME280;3931;42.260;23.116;2023-01-31T05:28:22;95306.06;;;7.79;59.62
7774;BME280;3931;42.260;23.116;2023-01-31T05:30:51;95293.28;;;6.80;62.84
7774;BME280;3931;42.260;23.116;2023-01-31T05:33:17;95311.44;;;6.74;64.22
7774;BME280;3931;42.260;23.116;2023-01-31T05:35:45;95304.06;;;7.17;62.92
7774;BME280;3931;42.260;23.116;2023-01-31T05:38:11;95295.69;;;7.87;58.76
7774;BME280;3931;42.260;23.116;2023-01-31T05:40:37;95304.34;;;7.66;59.24
7774;BME280;3931;42.260;23.116;2023-01-31T05:43:03;95305.09;;;7.70;59.19
7774;BME280;3931;42.260;23.116;2023-01-31T05:45:29;95309.25;;;7.78;59.31
7774;BME280;3931;42.260;23.116;2023-01-31T05:47:57;95305.63;;;7.61;59.00
7774;BME280;3931;42.260;23.116;2023-01-31T05:50:23;95292.59;;;7.85;58.07
7774;BME280;3931;42.260;23.116;2023-01-31T05:52:50;95296.31;;;7.75;57.63
7774;BME280;3931;42.260;23.116;2023-01-31T05:55:16;95291.84;;;7.42;58.69
7774;BME280;3931;42.260;23.116;2023-01-31T05:57:43;95296.72;;;7.34;58.62
7774;BME280;3931;42.260;23.116;2023-01-31T06:00:10;95294.81;;;7.51;58.35
7774;BME280;3931;42.260;23.116;2023-01-31T06:02:36;95291.38;;;7.23;58.09
7774;BME280;3931;42.260;23.116;2023-01-31T06:05:03;95288.84;;;7.95;56.64
7774;BME280;3931;42.260;23.116;2023-01-31T06:07:29;95296.97;;;7.63;55.93
7774;BME280;3931;42.260;23.116;2023-01-31T06:09:55;95284.59;;;7.71;56.82
7774;BME280;3931;42.260;23.116;2023-01-31T06:12:21;95290.50;;;7.07;58.11
7774;BME280;3931;42.260;23.116;2023-01-31T06:14:47;95290.84;;;7.94;57.20
7774;BME280;3931;42.260;23.116;2023-01-31T06:17:13;95289.84;;;7.22;56.80
7774;BME280;3931;42.260;23.116;2023-01-31T06:19:39;95299.41;;;7.77;56.39
7774;BME280;3931;42.260;23.116;2023-01-31T06:22:06;95288.75;;;8.90;53.91
7774;BME280;3931;42.260;23.116;2023-01-31T06:24:32;95289.59;;;9.19;53.01
7774;BME280;3931;42.260;23.116;2023-01-31T06:26:59;95298.31;;;9.62;51.37
7774;BME280;3931;42.260;23.116;2023-01-31T06:29:25;95292.28;;;7.79;54.47
7774;BME280;3931;42.260;23.116;2023-01-31T06:31:51;95287.91;;;7.43;55.79
7774;BME280;3931;42.260;23.116;2023-01-31T06:34:18;95281.63;;;7.19;56.27
7774;BME280;3931;42.260;23.116;2023-01-31T06:36:44;95288.72;;;7.40;56.47
7774;BME280;3931;42.260;23.116;2023-01-31T06:39:11;95293.53;;;7.12;56.96
7774;BME280;3931;42.260;23.116;2023-01-31T06:41:38;95291.09;;;7.18;57.33
7774;BME280;3931;42.260;23.116;2023-01-31T06:44:04;95287.78;;;7.03;57.05
7774;BME280;3931;42.260;23.116;2023-01-31T06:46:30;95285.34;;;7.09;57.96
7774;BME280;3931;42.260;23.116;2023-01-31T06:48:56;95281.81;;;7.31;56.71
7774;BME280;3931;42.260;23.116;2023-01-31T06:51:22;95276.59;;;7.37;56.54
7774;BME280;3931;42.260;23.116;2023-01-31T06:53:48;95281.41;;;7.53;55.65
7774;BME280;3931;42.260;23.116;2023-01-31T06:56:18;95273.38;;;7.62;54.90
7774;BME280;3931;42.260;23.116;2023-01-31T06:58:44;95287.28;;;7.94;54.23
7774;BME280;3931;42.260;23.116;2023-01-31T07:01:12;95286.94;;;7.92;54.16
7774;BME280;3931;42.260;23.116;2023-01-31T07:03:38;95288.16;;;8.30;53.50
7774;BME280;3931;42.260;23.116;2023-01-31T07:06:06;95294.56;;;7.84;53.65
7774;BME280;3931;42.260;23.116;2023-01-31T07:08:33;95307.44;;;7.48;54.74
7774;BME280;3931;42.260;23.116;2023-01-31T07:10:59;95310.34;;;7.18;56.12
7774;BME280;3931;42.260;23.116;2023-01-31T07:13:26;95294.06;;;7.70;55.31
7774;BME280;3931;42.260;23.116;2023-01-31T07:15:53;95290.38;;;8.16;54.63
7774;BME280;3931;42.260;23.116;2023-01-31T07:18:19;95291.00;;;8.43;53.41
7774;BME280;3931;42.260;23.116;2023-01-31T07:20:45;95291.31;;;8.29;54.04
7774;BME280;3931;42.260;23.116;2023-01-31T07:23:11;95290.66;;;8.21;53.04
7774;BME280;3931;42.260;23.116;2023-01-31T07:25:37;95295.69;;;8.26;52.41
7774;BME280;3931;42.260;23.116;2023-01-31T07:28:03;95286.88;;;8.51;52.46
7774;BME280;3931;42.260;23.116;2023-01-31T07:30:30;95269.75;;;8.75;51.89
7774;BME280;3931;42.260;23.116;2023-01-31T07:32:56;95281.81;;;8.65;52.58
7774;BME280;3931;42.260;23.116;2023-01-31T07:35:22;95300.97;;;8.17;51.84
7774;BME280;3931;42.260;23.116;2023-01-31T07:37:50;95304.28;;;8.08;53.65
7774;BME280;3931;42.260;23.116;2023-01-31T07:40:17;95305.56;;;8.59;53.40
7774;BME280;3931;42.260;23.116;2023-01-31T07:42:43;95305.03;;;8.48;53.23
7774;BME280;3931;42.260;23.116;2023-01-31T07:45:11;95305.13;;;8.25;53.82
7774;BME280;3931;42.260;23.116;2023-01-31T07:47:38;95298.72;;;8.67;52.73
7774;BME280;3931;42.260;23.116;2023-01-31T07:50:04;95305.88;;;8.29;53.20
7774;BME280;3931;42.260;23.116;2023-01-31T07:52:31;95304.78;;;7.64;55.25
7774;BME280;3931;42.260;23.116;2023-01-31T07:54:57;95300.44;;;8.77;53.42
7774;BME280;3931;42.260;23.116;2023-01-31T07:57:23;95301.19;;;8.26;53.35
7774;BME280;3931;42.260;23.116;2023-01-31T07:59:49;95308.38;;;8.20;54.85
7774;BME280;3931;42.260;23.116;2023-01-31T08:02:17;95298.16;;;8.01;55.88
7774;BME280;3931;42.260;23.116;2023-01-31T08:05:02;95302.59;;;7.75;56.86
7774;BME280;3931;42.260;23.116;2023-01-31T08:07:28;95304.16;;;7.76;56.97
7774;BME280;3931;42.260;23.116;2023-01-31T08:09:54;95301.13;;;7.90;57.21
7774;BME280;3931;42.260;23.116;2023-01-31T08:12:20;95302.16;;;7.77;58.76
7774;BME280;3931;42.260;23.116;2023-01-31T08:14:46;95302.78;;;7.45;59.57
7774;BME280;3931;42.260;23.116;2023-01-31T08:17:13;95294.78;;;7.93;59.57
7774;BME280;3931;42.260;23.116;2023-01-31T08:19:39;95295.66;;;8.46;58.80
7774;BME280;3931;42.260;23.116;2023-01-31T08:22:05;95306.63;;;7.90;60.08
7774;BME280;3931;42.260;23.116;2023-01-31T08:24:32;95304.44;;;8.21;60.94
7774;BME280;3931;42.260;23.116;2023-01-31T08:26:58;95302.28;;;8.32;58.87
7774;BME280;3931;42.260;23.116;2023-01-31T08:29:25;95319.47;;;7.97;59.94
7774;BME280;3931;42.260;23.116;2023-01-31T08:31:52;95315.66;;;8.10;60.73
7774;BME280;3931;42.260;23.116;2023-01-31T08:34:18;95319.78;;;7.83;62.20
7774;BME280;3931;42.260;23.116;2023-01-31T08:36:44;95317.38;;;8.04;62.05
7774;BME280;3931;42.260;23.116;2023-01-31T08:39:11;95315.78;;;7.45;64.39
7774;BME280;3931;42.260;23.116;2023-01-31T08:41:38;95326.47;;;7.39;64.17
7774;BME280;3931;42.260;23.116;2023-01-31T08:44:04;95328.31;;;6.99;69.54
7774;BME280;3931;42.260;23.116;2023-01-31T08:46:33;95329.31;;;6.63;71.62
7774;BME280;3931;42.260;23.116;2023-01-31T08:49:00;95318.16;;;6.46;73.01
7774;BME280;3931;42.260;23.116;2023-01-31T08:51:26;95334.00;;;6.62;72.99
7774;BME280;3931;42.260;23.116;2023-01-31T08:53:53;95334.03;;;6.85;73.40
7774;BME280;3931;42.260;23.116;2023-01-31T08:56:20;95323.56;;;6.50;75.82
7774;BME280;3931;42.260;23.116;2023-01-31T08:58:49;95312.47;;;6.30;78.76
7774;BME280;3931;42.260;23.116;2023-01-31T09:01:17;95319.66;;;6.21;80.36
7774;BME280;3931;42.260;23.116;2023-01-31T09:03:44;95322.22;;;6.61;78.82
7774;BME280;3931;42.260;23.116;2023-01-31T09:06:13;95322.81;;;6.99;75.72
7774;BME280;3931;42.260;23.116;2023-01-31T09:08:39;95323.78;;;7.35;75.30
7774;BME280;3931;42.260;23.116;2023-01-31T09:11:05;95325.84;;;6.82;75.81
7774;BME280;3931;42.260;23.116;2023-01-31T09:13:33;95307.41;;;7.05;76.18
7774;BME280;3931;42.260;23.116;2023-01-31T09:15:59;95320.34;;;7.74;74.77
7774;BME280;3931;42.260;23.116;2023-01-31T09:18:26;95316.81;;;7.74;70.42
7774;BME280;3931;42.260;23.116;2023-01-31T09:20:52;95325.56;;;7.46;70.99
7774;BME280;3931;42.260;23.116;2023-01-31T09:23:18;95320.28;;;7.55;73.12
7774;BME280;3931;42.260;23.116;2023-01-31T09:25:51;95320.91;;;7.43;71.53
7774;BME280;3931;42.260;23.116;2023-01-31T09:28:17;95309.59;;;9.07;65.77
7774;BME280;3931;42.260;23.116;2023-01-31T09:30:44;95326.25;;;7.92;68.68
7774;BME280;3931;42.260;23.116;2023-01-31T09:33:10;95315.47;;;8.41;67.32
7774;BME280;3931;42.260;23.116;2023-01-31T09:35:36;95307.22;;;9.53;63.17
7774;BME280;3931;42.260;23.116;2023-01-31T09:38:02;95309.13;;;9.57;61.67
7774;BME280;3931;42.260;23.116;2023-01-31T09:40:31;95299.44;;;9.65;59.64
7774;BME280;3931;42.260;23.116;2023-01-31T09:42:58;95305.03;;;9.32;60.54
7774;BME280;3931;42.260;23.116;2023-01-31T09:45:31;95297.56;;;9.62;59.96
7774;BME280;3931;42.260;23.116;2023-01-31T09:48:00;95291.28;;;9.45;58.54
7774;BME280;3931;42.260;23.116;2023-01-31T09:50:32;95290.09;;;10.03;56.89
7774;BME280;3931;42.260;23.116;2023-01-31T09:52:59;95282.34;;;10.65;55.56
7774;BME280;3931;42.260;23.116;2023-01-31T09:55:29;95277.22;;;10.25;54.71
7774;BME280;3931;42.260;23.116;2023-01-31T09:58:05;95271.25;;;10.27;54.54
7774;BME280;3931;42.260;23.116;2023-01-31T10:00:38;95277.91;;;9.43;55.64
7774;BME280;3931;42.260;23.116;2023-01-31T10:03:36;95273.03;;;9.35;55.68
7774;BME280;3931;42.260;23.116;2023-01-31T10:06:11;95264.25;;;9.24;56.23
7774;BME280;3931;42.260;23.116;2023-01-31T10:08:46;95254.66;;;9.86;55.20
7774;BME280;3931;42.260;23.116;2023-01-31T10:11:21;95251.38;;;9.91;54.16
7774;BME280;3931;42.260;23.116;2023-01-31T10:13:54;95252.91;;;9.34;55.00
7774;BME280;3931;42.260;23.116;2023-01-31T10:16:25;95246.75;;;8.98;56.06
7774;BME280;3931;42.260;23.116;2023-01-31T10:18:57;95247.44;;;9.47;54.74
7774;BME280;3931;42.260;23.116;2023-01-31T10:21:29;95246.63;;;9.63;54.33
7774;BME280;3931;42.260;23.116;2023-01-31T10:24:01;95252.72;;;9.99;52.94
7774;BME280;3931;42.260;23.116;2023-01-31T10:26:30;95238.19;;;9.53;53.78
7774;BME280;3931;42.260;23.116;2023-01-31T10:28:59;95237.81;;;9.68;54.04
7774;BME280;3931;42.260;23.116;2023-01-31T10:31:31;95234.47;;;9.60;54.25
7774;BME280;3931;42.260;23.116;2023-01-31T10:34:03;95233.63;;;9.18;54.48
7774;BME280;3931;42.260;23.116;2023-01-31T10:36:35;95239.53;;;9.33;55.52
7774;BME280;3931;42.260;23.116;2023-01-31T10:39:06;95235.69;;;9.59;54.33
7774;BME280;3931;42.260;23.116;2023-01-31T10:41:45;95234.53;;;9.44;54.77
7774;BME280;3931;42.260;23.116;2023-01-31T10:44:21;95238.50;;;9.43;56.11
7774;BME280;3931;42.260;23.116;2023-01-31T10:46:50;95238.31;;;8.89;56.05
7774;BME280;3931;42.260;23.116;2023-01-31T10:49:20;95235.91;;;9.36;55.83
7774;BME280;3931;42.260;23.116;2023-01-31T10:52:00;95234.09;;;8.52;57.46
7774;BME280;3931;42.260;23.116;2023-01-31T10:54:38;95239.84;;;8.22;58.59
7774;BME280;3931;42.260;23.116;2023-01-31T10:57:07;95236.66;;;8.43;59.32
7774;BME280;3931;42.260;23.116;2023-01-31T10:59:35;95235.56;;;8.21;60.37
7774;BME280;3931;42.260;23.116;2023-01-31T11:02:04;95224.56;;;9.46;57.43
7774;BME280;3931;42.260;23.116;2023-01-31T11:04:38;95235.09;;;9.23;56.38
7774;BME280;3931;42.260;23.116;2023-01-31T11:07:05;95239.41;;;8.59;57.50
7774;BME280;3931;42.260;23.116;2023-01-31T11:09:33;95237.00;;;8.77;58.16
7774;BME280;3931;42.260;23.116;2023-01-31T11:12:01;95227.13;;;9.25;57.65
7774;BME280;3931;42.260;23.116;2023-01-31T11:14:28;95231.00;;;9.85;56.75
7774;BME280;3931;42.260;23.116;2023-01-31T11:16:59;95229.22;;;9.21;58.09
7774;BME280;3931;42.260;23.116;2023-01-31T11:19:31;95235.81;;;8.62;59.78
7774;BME280;3931;42.260;23.116;2023-01-31T11:21:59;95230.47;;;9.04;59.48
7774;BME280;3931;42.260;23.116;2023-01-31T11:24:28;95233.06;;;8.95;59.45
7774;BME280;3931;42.260;23.116;2023-01-31T11:26:59;95237.00;;;8.94;59.18
7774;BME280;3931;42.260;23.116;2023-01-31T11:29:27;95232.28;;;9.39;58.56
7774;BME280;3931;42.260;23.116;2023-01-31T11:31:55;95234.13;;;9.29;58.35
7774;BME280;3931;42.260;23.116;2023-01-31T11:34:23;95239.84;;;9.06;59.27
7774;BME280;3931;42.260;23.116;2023-01-31T11:36:49;95238.75;;;8.71;60.15
7774;BME280;3931;42.260;23.116;2023-01-31T11:39:25;95232.69;;;9.09;60.38
7774;BME280;3931;42.260;23.116;2023-01-31T11:41:52;95237.50;;;9.21;59.22
7774;BME280;3931;42.260;23.116;2023-01-31T11:44:20;95246.63;;;9.34;58.28
7774;BME280;3931;42.260;23.116;2023-01-31T11:46:49;95241.28;;;9.55;58.64
7774;BME280;3931;42.260;23.116;2023-01-31T11:49:26;95240.41;;;8.33;64.16
7774;BME280;3931;42.260;23.116;2023-01-31T11:51:53;95237.00;;;8.09;66.28
7774;BME280;3931;42.260;23.116;2023-01-31T11:54:22;95235.44;;;8.44;66.88
7774;BME280;3931;42.260;23.116;2023-01-31T11:56:50;95238.97;;;8.45;65.56
7774;BME280;3931;42.260;23.116;2023-01-31T11:59:19;95232.28;;;8.78;65.04
7774;BME280;3931;42.260;23.116;2023-01-31T12:01:49;95230.13;;;8.86;64.88
7774;BME280;3931;42.260;23.116;2023-01-31T12:04:17;95232.75;;;9.21;64.03
7774;BME280;3931;42.260;23.116;2023-01-31T12:06:55;95237.63;;;9.01;65.01
7774;BME280;3931;42.260;23.116;2023-01-31T12:09:24;95225.84;;;9.29;65.61
7774;BME280;3931;42.260;23.116;2023-01-31T12:11:52;95228.06;;;8.90;65.62
7774;BME280;3931;42.260;23.116;2023-01-31T12:14:19;95225.53;;;9.40;65.67
7774;BME280;3931;42.260;23.116;2023-01-31T12:16:46;95235.09;;;9.80;63.78
7774;BME280;3931;42.260;23.116;2023-01-31T12:19:23;95238.94;;;10.11;62.00
7774;BME280;3931;42.260;23.116;2023-01-31T12:22:00;95226.97;;;10.02;62.78
7774;BME280;3931;42.260;23.116;2023-01-31T12:24:35;95229.03;;;9.85;62.04
7774;BME280;3931;42.260;23.116;2023-01-31T12:27:13;95222.56;;;9.63;63.00
7774;BME280;3931;42.260;23.116;2023-01-31T12:30:02;95222.97;;;9.33;63.74
7774;BME280;3931;42.260;23.116;2023-01-31T12:32:43;95227.25;;;9.21;64.39
7774;BME280;3931;42.260;23.116;2023-01-31T12:35:30;95220.94;;;9.49;63.40
7774;BME280;3931;42.260;23.116;2023-01-31T12:38:07;95214.41;;;9.43;64.25
7774;BME280;3931;42.260;23.116;2023-01-31T12:40:39;95217.03;;;9.63;63.15
7774;BME280;3931;42.260;23.116;2023-01-31T12:43:19;95218.97;;;9.21;65.67
7774;BME280;3931;42.260;23.116;2023-01-31T12:45:58;95219.78;;;9.63;64.54
7774;BME280;3931;42.260;23.116;2023-01-31T12:48:54;95224.41;;;9.09;66.49
7774;BME280;3931;42.260;23.116;2023-01-31T12:51:36;95224.31;;;8.32;73.58
7774;BME280;3931;42.260;23.116;2023-01-31T12:54:31;95225.44;;;8.50;75.67
7774;BME280;3931;42.260;23.116;2023-01-31T12:57:08;95223.38;;;8.70;76.17
7774;BME280;3931;42.260;23.116;2023-01-31T12:59:45;95217.59;;;8.33;76.91
7774;BME280;3931;42.260;23.116;2023-01-31T13:02:26;95222.94;;;8.04;78.30
7774;BME280;3931;42.260;23.116;2023-01-31T13:05:02;95215.63;;;8.81;74.21
7774;BME280;3931;42.260;23.116;2023-01-31T13:07:36;95215.28;;;8.79;72.59
7774;BME280;3931;42.260;23.116;2023-01-31T13:10:09;95221.84;;;8.18;73.64
7774;BME280;3931;42.260;23.116;2023-01-31T13:12:41;95206.75;;;8.58;70.66
7774;BME280;3931;42.260;23.116;2023-01-31T13:15:17;95210.88;;;8.98;70.09
7774;BME280;3931;42.260;23.116;2023-01-31T13:17:46;95212.97;;;8.62;69.55
7774;BME280;3931;42.260;23.116;2023-01-31T13:20:26;95218.19;;;7.69;68.67
7774;BME280;3931;42.260;23.116;2023-01-31T13:22:56;95215.78;;;8.06;70.56
7774;BME280;3931;42.260;23.116;2023-01-31T13:25:28;95211.06;;;8.43;69.32
7774;BME280;3931;42.260;23.116;2023-01-31T13:28:04;95208.03;;;9.02;67.31
7774;BME280;3931;42.260;23.116;2023-01-31T13:30:37;95221.78;;;9.34;65.45
7774;BME280;3931;42.260;23.116;2023-01-31T13:33:15;95219.16;;;8.82;65.64
7774;BME280;3931;42.260;23.116;2023-01-31T13:35:44;95227.88;;;9.13;63.53
7774;BME280;3931;42.260;23.116;2023-01-31T13:38:15;95215.72;;;8.94;63.66
7774;BME280;3931;42.260;23.116;2023-01-31T13:40:46;95224.94;;;8.88;61.11